Date,TemperatureHighF,TemperatureAvgF,TemperatureLowF,DewpointHighF,DewpointAvgF,DewpointLowF,HumidityHigh,HumidityAvg,HumidityLow,PressureMaxIn,PressureMinIn,WindSpeedMaxMPH,WindSpeedAvgMPH,GustSpeedMaxMPH,PrecipitationSumIn
2013-1-1,77,70,67,69,67,65,97,90,73,30.03,29.91,8,4,0,0.38
2013-1-2,73,69,66,71,68,65,99,96,90,29.98,29.85,5,1,0,0.76
2013-1-3,73,68,67,71,67,65,99,95,89,30.00,29.88,6,2,0,0.77
2013-1-4,75,70,67,70,67,64,97,91,75,30.04,29.90,6,3,0,0.69
2013-1-5,75,71,68,70,67,65,95,87,77,30.04,29.93,10,4,0,0.30
2013-1-6,79,73,68,70,67,64,98,83,66,30.04,29.89,14,3,0,0.21
2013-1-7,80,73,68,70,66,63,99,79,65,29.99,29.84,8,2,0,0.09
2013-1-8,79,70,67,69,66,64,98,87,67,29.90,29.77,5,2,0,0.43
2013-1-9,80,74,68,71,68,65,98,82,65,29.90,29.78,4,2,0,0.07
2013-1-10,80,74,68,67,65,63,88,74,62,29.90,29.80,6,2,0,0.00
2013-1-11,80,73,66,67,65,63,96,78,60,29.89,29.73,7,2,0,0.00
2013-1-12,79,72,66,73,69,66,99,88,68,29.88,29.76,3,1,0,0.14
2013-1-13,83,73,65,70,68,64,99,87,62,29.90,29.80,3,1,0,0.00
2013-1-14,78,72,66,72,69,65,99,91,70,29.88,29.76,8,2,0,0.67
2013-1-15,80,68,61,67,64,60,99,87,61,29.87,29.75,4,1,0,0.00
2013-1-16,79,70,60,64,62,58,99,78,58,29.89,29.73,4,1,0,0.00
2013-1-17,79,67,61,63,61,59,99,84,54,29.84,29.71,3,1,0,0.00
2013-1-18,80,70,60,64,61,56,99,75,55,29.90,29.73,4,1,0,0.00
2013-1-19,78,68,59,60,57,54,94,69,46,29.97,29.83,6,1,0,0.00
2013-1-20,77,68,62,59,58,57,86,71,52,30.02,29.89,7,2,0,0.00
2013-1-21,78,72,67,62,61,58,82,69,56,30.05,29.96,7,3,0,0.00
2013-1-22,80,72,66,67,62,59,88,72,55,30.04,29.94,5,1,0,0.00
2013-1-23,80,72,64,68,65,61,97,82,64,30.00,29.89,4,1,0,0.02
2013-1-24,76,68,66,70,67,65,99,96,80,30.00,29.90,2,0,0,0.21
2013-1-25,80,70,64,70,66,63,99,89,63,30.00,29.89,4,1,0,0.00
2013-1-26,76,69,65,68,66,64,99,91,72,29.96,29.83,4,1,0,0.00
2013-1-27,77,70,64,70,67,63,99,90,75,29.90,29.78,6,2,0,0.61
2013-1-28,78,69,64,71,66,64,99,93,68,29.90,29.79,4,0,0,1.05
2013-1-29,80,71,64,69,66,64,99,87,64,29.95,29.82,3,1,0,0.00
2013-1-30,81,71,63,69,66,62,99,85,63,30.00,29.89,7,1,0,0.00
2013-1-31,80,73,67,67,65,63,91,77,65,30.03,29.92,6,3,0,0.00
2013-2-1,79,73,65,63,60,55,83,65,46,30.04,29.92,6,3,0,0.00
2013-2-2,81,71,66,63,62,60,87,73,53,30.09,30.00,6,1,0,0.00
2013-2-3,72,68,62,62,59,58,98,74,66,30.11,30.02,6,2,0,0.00
2013-2-4,75,72,68,66,62,59,81,72,63,30.07,29.95,5,2,0,0.02
2013-2-5,80,71,63,65,62,59,98,77,53,30.03,29.90,6,2,0,0.24
2013-2-6,80,71,65,69,66,64,99,84,63,30.02,29.91,4,1,0,0.09
2013-2-7,79,71,66,73,69,65,99,92,74,30.04,29.93,4,1,0,0.19
2013-2-8,83,71,64,67,65,64,99,83,56,30.05,29.93,4,1,0,0.00
2013-2-9,80,73,64,68,63,61,99,73,55,30.08,29.94,5,2,0,0.00
2013-2-10,79,71,68,67,63,60,88,77,63,30.12,29.96,5,2,0,0.00
2013-2-11,70,68,67,68,66,65,97,95,92,30.13,30.08,3,1,0,0.08
2013-2-14,77,69,66,63,56,-100,89,70,58,29.98,29.91,5,-33,0,0.00
2013-2-15,84,73,67,67,64,61,89,75,54,30.03,29.90,4,2,0,0.02
2013-2-16,80,72,67,65,61,58,93,69,53,30.05,29.91,6,2,0,0.03
2013-2-17,71,70,69,62,61,59,78,72,67,30.07,30.02,4,2,0,0.02
2013-2-18,79,73,68,65,60,58,88,65,53,30.07,29.92,9,4,0,0.02
2013-2-19,77,69,63,66,63,58,97,81,59,30.08,29.95,5,1,0,0.29
2013-2-20,80,71,64,70,63,59,99,78,58,30.07,29.98,6,2,0,0.23
2013-2-21,74,68,65,69,66,61,99,94,77,30.07,29.97,8,2,0,1.46
2013-2-22,74,69,66,70,67,64,99,92,80,30.06,29.93,6,2,0,1.29
2013-2-23,81,71,66,69,66,64,99,83,60,30.04,29.88,5,2,0,0.64
2013-2-24,73,70,65,67,64,61,97,82,75,30.00,29.88,4,1,0,0.02
2013-2-25,77,72,67,65,63,62,89,76,63,30.01,29.89,9,2,0,0.00
2013-2-26,79,71,65,66,64,62,96,80,58,30.04,29.93,5,1,0,0.12
2013-2-27,81,73,66,64,61,58,82,67,51,30.08,29.93,6,2,0,0.00
2013-2-28,82,74,67,63,61,56,85,65,47,30.08,29.94,5,2,0,0.00
2013-3-1,76,72,67,62,60,58,76,66,55,30.06,29.93,5,2,0,0.00
2013-3-2,81,74,68,61,60,57,75,62,47,30.10,29.91,6,2,0,0.00
2013-3-3,80,73,65,61,59,56,82,61,45,30.07,29.95,5,2,0,0.00
2013-3-4,81,72,64,63,59,55,88,65,50,30.07,29.94,6,2,0,0.00
2013-3-5,82,73,60,62,60,56,89,64,47,30.04,29.90,5,1,0,0.00
2013-3-6,83,74,63,64,62,61,94,70,51,30.04,29.88,5,1,0,0.00
2013-3-7,83,71,62,66,62,57,99,78,43,30.00,29.85,4,1,0,0.00
2013-3-8,80,71,61,66,64,60,99,79,54,29.88,29.76,3,1,0,0.00
2013-3-9,82,75,71,70,68,65,89,79,66,29.85,29.74,6,2,0,0.03
2013-3-10,71,67,63,70,67,62,99,98,93,29.94,29.81,3,0,0,0.86
2013-3-11,83,71,61,70,65,60,99,82,54,29.98,29.84,4,1,0,0.00
2013-3-12,80,72,66,68,63,59,99,73,63,30.00,29.88,4,2,0,0.00
2013-3-13,80,72,60,63,61,60,99,72,55,30.04,29.87,6,2,0,0.00
2013-3-14,79,71,62,66,63,60,99,77,56,29.99,29.85,3,1,0,0.00
2013-3-15,78,70,61,64,61,58,97,75,58,29.91,29.79,4,1,0,0.00
2013-3-16,80,70,60,60,56,53,89,63,43,29.93,29.79,7,2,0,0.00
2013-3-17,80,66,59,59,58,55,96,77,47,29.96,29.82,4,1,0,0.00
2013-3-18,78,70,59,62,60,58,99,71,54,29.96,29.82,4,1,0,0.00
2013-3-19,82,71,61,66,63,60,99,78,55,29.94,29.82,4,1,0,0.00
2013-3-20,83,75,64,69,66,62,99,74,50,29.98,29.85,4,1,0,0.00
2013-3-21,83,76,66,71,68,64,99,79,61,29.96,29.84,3,1,0,0.00
2013-3-22,81,75,68,70,68,67,98,81,65,29.94,29.81,4,1,0,0.01
2013-3-23,77,72,68,68,65,63,98,78,69,29.93,29.80,6,2,0,0.00
2013-3-24,72,68,64,69,66,64,99,96,91,29.96,29.81,4,1,0,0.10
2013-3-25,83,74,65,74,68,64,99,82,64,29.94,29.81,3,1,0,0.00
2013-3-26,83,75,65,72,66,62,99,75,51,29.97,29.84,4,1,0,0.00
2013-3-27,76,70,66,70,67,64,99,91,76,29.95,29.84,6,1,0,0.19
2013-3-28,83,71,64,70,65,63,99,84,55,29.97,29.82,6,1,0,0.10
2013-3-29,83,74,64,70,66,62,99,77,58,29.98,29.85,4,1,0,0.06
2013-3-30,82,73,66,70,66,60,99,80,60,29.96,29.84,5,1,0,0.30
2013-3-31,79,69,60,58,55,52,89,62,44,29.99,29.84,5,2,0,0.00
2013-4-1,77,68,60,60,57,54,93,70,54,29.95,29.81,3,1,0,0.00
2013-4-2,79,70,58,60,57,55,96,66,48,30.00,29.88,6,2,0,0.00
2013-4-3,83,72,59,63,62,59,99,71,51,30.00,29.87,4,1,0,0.00
2013-4-4,84,75,62,67,63,61,99,69,52,30.00,29.85,5,1,0,0.00
2013-4-5,86,77,68,67,65,64,91,69,51,30.04,29.89,5,1,0,0.00
2013-4-6,86,80,68,72,69,67,99,72,57,30.06,29.92,5,2,0,0.00
2013-4-7,86,73,67,70,67,65,99,83,58,30.08,29.93,5,1,0,0.00
2013-4-8,86,74,68,68,66,64,94,78,51,30.02,29.83,4,1,0,0.00
2013-4-9,87,75,66,67,65,63,96,71,49,29.98,29.83,3,1,0,0.00
2013-4-10,88,75,65,70,66,64,99,78,47,29.97,29.83,8,1,0,0.00
2013-4-11,88,75,66,69,67,65,98,79,53,29.95,29.80,5,0,0,0.00
2013-4-12,86,75,68,70,68,66,97,81,54,29.88,29.77,5,1,0,0.00
2013-4-13,82,75,69,72,70,68,99,85,66,29.87,29.74,3,1,0,0.00
2013-4-14,81,72,68,73,70,68,99,92,72,29.87,29.75,5,1,0,0.81
2013-4-15,80,73,67,74,70,67,99,90,72,29.95,29.86,3,0,0,0.02
2013-4-16,84,74,65,74,68,65,99,82,59,30.02,29.90,5,1,0,0.00
2013-4-17,88,76,66,72,68,65,99,77,54,30.06,29.94,5,1,0,0.00
2013-4-18,86,76,69,71,68,65,95,78,55,30.05,29.94,3,1,0,0.06
2013-4-19,68,68,68,67,67,66,97,96,95,30.01,30.00,2,0,0,0.03
2013-4-20,83,78,70,72,64,-100,79,68,64,29.95,29.83,0,-30,0,0.00
2013-4-23,80,78,74,72,70,68,86,77,76,29.97,29.83,0,0,0,0.00
2013-4-24,80,76,71,74,70,65,88,82,77,29.98,29.85,0,0,0,0.00
2013-4-25,78,73,71,73,68,65,96,84,79,29.95,29.89,0,0,0,0.00
2013-5-9,78,77,76,70,69,68,76,76,76,29.97,29.81,0,0,0,0.00
2013-5-10,78,77,76,69,69,68,76,76,76,29.96,29.87,0,0,0,0.00
2013-5-15,88,76,70,70,64,-100,98,74,52,30.02,29.89,5,-25,0,0.16
2013-5-16,83,74,70,70,62,-100,97,71,57,29.99,29.90,6,-25,0,0.00
2013-5-17,85,74,67,71,68,67,98,84,58,29.95,29.92,3,1,0,0.03
2013-5-23,88,81,73,70,68,66,83,67,51,29.94,29.79,5,2,0,0.10
2013-5-24,88,78,70,71,68,64,88,72,53,29.94,29.85,5,1,0,0.00
2013-5-25,85,76,70,74,70,65,98,81,58,29.96,29.84,6,2,0,0.35
2013-5-26,87,75,67,70,68,66,98,80,51,30.01,29.82,5,1,0,0.06
2013-5-27,86,80,69,70,68,65,98,69,52,29.98,29.85,5,1,0,0.30
2013-5-28,87,79,71,75,70,68,98,77,60,29.97,29.85,4,1,0,0.00
2013-5-29,87,78,69,73,71,69,98,83,60,29.95,29.84,4,1,0,0.02
2013-5-30,88,77,69,73,70,67,98,80,56,29.92,29.76,5,1,0,0.00
2013-5-31,87,80,72,75,72,68,98,77,63,29.93,29.80,4,1,0,0.00
2013-6-1,86,80,75,74,70,67,84,74,62,29.97,29.85,3,2,0,0.00
2013-6-2,81,77,72,73,70,67,98,79,66,29.98,29.88,5,2,0,0.03
2013-6-3,85,78,74,69,67,66,78,70,59,29.97,29.87,5,1,0,0.00
2013-6-4,88,81,74,70,68,66,80,65,52,29.94,29.82,5,2,0,0.00
2013-6-5,86,78,74,71,68,65,78,70,55,29.94,29.82,5,2,0,0.01
2013-6-6,82,76,73,66,65,64,76,69,57,29.92,29.89,3,1,0,0.00
2013-6-8,88,81,75,69,67,65,75,63,51,29.95,29.81,8,2,0,0.00
2013-6-9,90,78,71,71,68,66,98,73,48,29.97,29.85,7,1,0,0.02
2013-6-10,87,79,71,70,68,67,88,70,56,29.96,29.82,4,1,0,0.00
2013-6-11,89,79,72,71,68,66,87,71,53,29.92,29.80,4,1,0,0.00
2013-6-12,84,76,72,74,70,66,98,80,65,29.99,29.87,5,2,0,0.12
2013-6-13,85,77,70,74,70,68,98,81,61,30.00,29.91,8,2,0,0.23
2013-6-14,79,73,69,73,69,65,98,86,67,29.99,29.85,4,1,0,0.21
2013-6-15,77,72,69,73,69,66,98,90,69,29.93,29.87,4,1,0,0.05
2013-6-16,80,73,69,74,70,68,98,92,74,29.91,29.86,3,1,0,0.02
2013-6-17,86,76,70,75,70,68,98,85,59,29.99,29.87,5,2,0,0.19
2013-6-18,84,74,69,74,69,66,98,85,62,29.97,29.85,5,2,0,0.22
2013-6-19,86,77,69,73,70,68,98,81,57,29.96,29.85,6,2,0,0.04
2013-6-20,85,78,70,72,70,67,98,78,59,29.96,29.83,6,1,0,0.08
2013-6-21,83,74,69,74,70,67,98,89,66,29.95,29.83,5,1,0,0.46
2013-6-22,84,75,69,71,69,64,98,84,61,29.98,29.86,4,2,0,0.11
2013-6-23,83,75,70,74,71,70,98,89,71,30.01,29.90,5,2,0,0.15
2013-6-24,81,74,69,73,70,68,98,89,70,30.00,29.89,4,1,0,0.22
2013-6-25,82,76,69,76,71,68,98,86,70,29.96,29.86,5,1,0,0.03
2013-6-26,78,74,68,73,69,67,98,85,70,29.95,29.88,3,1,0,0.00
2013-6-27,84,74,68,71,69,67,98,87,64,29.94,29.80,7,1,0,0.02
2013-6-28,79,75,70,72,71,70,98,88,76,29.95,29.87,2,0,0,0.00
2013-6-29,85,73,69,73,70,68,98,90,66,29.92,29.78,5,1,0,0.06
2013-6-30,86,74,68,72,68,66,98,84,55,29.92,29.79,6,1,0,0.00
2013-7-1,88,79,71,76,70,67,98,76,58,29.94,29.81,4,1,0,0.01
2013-7-2,85,76,70,73,70,66,98,84,61,29.89,29.77,3,1,0,0.02
2013-7-3,87,79,71,72,69,66,98,71,55,29.88,29.75,8,2,0,0.00
2013-7-4,87,78,68,72,68,66,98,74,59,29.97,29.79,6,2,0,0.01
2013-7-5,87,79,68,71,69,67,98,75,57,29.91,29.77,7,2,0,0.02
2013-7-6,88,77,69,72,70,66,98,80,59,29.91,29.79,3,1,0,0.00
2013-7-7,91,82,72,73,70,68,89,68,53,29.85,29.72,4,1,0,0.00
2013-7-8,91,81,70,74,71,69,98,74,53,29.90,29.76,4,1,0,0.00
2013-7-9,91,83,75,72,70,68,81,66,52,29.97,29.87,4,2,0,0.00
2013-7-10,83,78,72,72,70,67,98,76,64,30.01,29.93,5,1,0,0.06
2013-7-11,85,76,71,73,70,67,98,81,62,29.98,29.85,5,1,0,0.18
2013-7-12,85,78,69,74,71,68,98,81,61,29.93,29.81,7,1,0,0.19
2013-7-13,86,81,68,71,69,66,98,68,56,29.88,29.76,7,2,0,0.01
2013-7-14,90,79,72,69,67,66,85,68,49,29.86,29.74,4,1,0,0.00
2013-7-15,89,80,72,71,69,66,84,71,54,29.89,29.76,3,1,0,0.00
2013-7-16,91,81,70,72,70,68,98,72,49,29.88,29.74,6,2,0,0.02
2013-7-17,91,78,71,74,69,66,98,75,52,29.89,29.78,6,2,0,0.04
2013-7-18,90,81,70,72,70,67,98,71,53,29.94,29.77,6,2,0,0.01
2013-7-19,90,81,70,74,71,68,98,72,55,29.94,29.82,4,1,0,0.06
2013-7-20,90,78,70,72,70,66,98,79,50,29.94,29.81,5,1,0,0.06
2013-7-21,88,79,70,71,68,66,98,71,53,29.90,29.76,4,1,0,0.00
2013-7-22,90,82,74,75,73,70,89,76,62,29.86,29.74,4,1,0,0.00
2013-7-23,78,74,73,75,72,70,98,93,79,29.91,29.80,1,0,0,0.00
2013-7-24,89,78,72,73,70,67,98,78,58,29.91,29.75,4,1,0,0.11
2013-7-25,89,80,71,72,69,67,90,71,54,29.87,29.76,7,1,0,0.00
2013-7-26,86,79,72,73,70,67,98,76,60,29.94,29.84,4,1,0,0.00
2013-7-27,89,82,71,73,70,67,98,69,57,29.95,29.80,5,2,0,0.00
2013-7-28,88,79,73,75,72,70,98,80,56,29.91,29.78,3,1,0,0.02
2013-7-29,82,79,75,79,76,73,98,92,77,29.82,29.69,4,1,0,0.22
2013-7-30,91,86,78,77,74,72,83,70,62,29.97,29.85,6,2,0,0.00
2013-7-31,86,78,74,76,72,69,98,83,63,30.01,29.89,6,2,0,0.12
2013-8-1,86,78,71,72,70,68,98,76,58,30.00,29.85,4,1,0,0.00
2013-8-2,89,80,72,72,70,69,98,74,54,29.96,29.81,4,1,0,0.02
2013-8-3,86,75,72,74,71,69,98,88,60,29.94,29.82,4,1,0,0.00
2013-8-4,89,79,70,73,71,69,98,77,56,29.91,29.79,4,1,0,0.02
2013-8-5,89,81,70,74,71,68,98,73,56,29.91,29.79,7,1,0,0.00
2013-8-6,89,82,72,72,69,67,89,68,53,29.93,29.80,5,1,0,0.00
2013-8-7,91,81,69,71,69,66,98,67,49,29.94,29.83,6,1,0,0.00
2013-8-8,92,81,72,72,68,66,82,66,49,29.96,29.82,4,1,0,0.00
2013-8-9,91,80,71,74,70,65,98,74,51,29.94,29.78,5,1,0,0.02
2013-8-10,87,78,73,76,73,69,98,87,67,29.91,29.81,4,1,0,0.06
2013-8-11,88,78,74,77,72,68,98,85,59,29.91,29.81,5,1,0,0.08
2013-8-12,91,82,74,72,69,66,85,65,46,29.94,29.84,5,2,0,0.00
2013-8-13,85,78,72,74,70,68,98,79,66,29.92,29.80,4,1,0,0.06
2013-8-14,89,80,71,71,68,66,98,68,50,29.94,29.76,7,2,0,0.00
2013-8-15,90,82,72,73,70,67,86,68,52,29.92,29.80,5,1,0,0.00
2013-8-16,90,82,74,73,71,68,89,70,56,29.92,29.80,9,3,0,0.00
2013-8-17,92,83,74,70,69,67,81,64,48,29.91,29.79,3,1,0,0.00
2013-8-18,91,79,73,71,69,66,82,72,53,29.92,29.80,5,1,0,0.00
2013-8-19,90,81,72,70,68,67,86,66,49,29.91,29.79,4,1,0,0.00
2013-8-20,88,81,70,72,71,70,98,72,56,29.90,29.75,5,1,0,0.00
2013-8-21,88,81,73,75,72,69,89,75,60,29.85,29.74,3,1,0,0.00
2013-8-22,93,81,70,74,71,68,98,73,50,29.87,29.72,4,1,0,0.00
2013-8-23,91,81,74,74,71,68,98,71,52,29.90,29.76,4,1,0,0.00
2013-8-24,91,80,71,76,70,68,98,76,51,29.92,29.78,4,1,0,0.02
2013-8-25,90,80,74,71,69,67,79,69,52,29.96,29.83,4,1,0,0.00
2013-8-26,92,83,75,72,69,68,80,64,50,29.97,29.86,5,1,0,0.00
2013-8-27,91,82,74,70,68,66,77,63,47,29.98,29.83,6,2,0,0.00
2013-8-28,90,79,70,72,69,66,89,72,48,29.92,29.76,4,1,0,0.26
2013-8-29,92,81,71,74,70,68,98,72,51,29.85,29.71,5,1,0,0.04
2013-8-30,92,81,70,73,70,68,98,73,46,29.92,29.79,5,1,0,0.27
2013-8-31,90,78,70,77,70,67,98,76,53,29.93,29.79,4,1,0,0.01
2013-9-1,88,82,70,73,70,68,98,67,57,29.95,29.79,4,2,0,0.00
2013-9-2,91,82,72,73,69,66,98,68,52,29.94,29.80,5,2,0,0.00
2013-9-3,90,80,72,74,70,67,98,71,51,29.94,29.80,6,1,0,0.00
2013-9-4,91,81,68,73,69,66,98,69,50,29.92,29.79,6,2,0,0.00
2013-9-5,94,80,69,71,68,66,90,69,45,30.00,29.83,4,1,0,0.00
2013-9-6,92,80,70,74,70,67,98,74,53,29.98,29.85,7,1,0,0.00
2013-9-7,87,79,73,77,73,71,98,82,61,29.94,29.80,4,2,0,0.12
2013-9-8,93,83,73,74,71,69,98,69,52,29.96,29.83,5,1,0,0.00
2013-9-9,93,82,74,73,69,68,82,66,49,29.97,29.84,6,2,0,0.00
2013-9-10,92,82,73,73,70,68,86,68,53,29.96,29.81,4,1,0,0.00
2013-9-11,90,81,72,74,72,69,98,75,55,29.97,29.83,7,1,0,0.08
2013-9-12,91,81,73,76,73,70,98,79,58,29.96,29.77,5,1,0,0.01
2013-9-13,88,80,74,78,73,70,98,81,61,29.84,29.71,4,1,0,0.10
2013-9-14,89,78,71,78,73,71,98,87,60,29.83,29.70,4,1,0,0.02
2013-9-15,90,80,74,75,72,69,98,77,55,29.87,29.75,4,1,0,0.00
2013-9-16,90,82,75,75,70,68,87,68,53,29.94,29.80,9,2,0,0.00
2013-9-17,89,79,73,77,72,70,98,80,60,29.98,29.81,5,1,0,0.08
2013-9-18,90,79,71,74,72,69,98,81,53,29.90,29.79,5,1,0,0.08
2013-9-19,90,80,70,75,71,69,98,76,56,29.93,29.82,5,1,0,0.02
2013-9-20,89,79,73,73,69,68,86,73,55,29.95,29.83,4,1,0,0.00
2013-9-21,83,75,71,73,71,67,98,87,67,29.98,29.84,4,1,0,0.14
2013-9-22,91,77,72,74,71,69,98,84,55,29.93,29.81,4,1,0,0.02
2013-9-23,90,78,70,76,71,68,98,81,58,29.93,29.79,6,1,0,0.06
2013-9-24,81,76,72,76,72,69,98,90,74,29.92,29.81,4,1,0,0.30
2013-9-25,86,76,71,78,73,70,98,90,65,29.95,29.81,5,1,0,0.22
2013-9-26,82,76,72,81,71,57,98,87,53,29.90,29.80,3,0,0,0.30
2013-9-27,84,78,72,75,69,58,83,75,59,29.98,29.85,4,1,0,0.00
2013-9-28,89,78,72,75,72,70,98,85,60,29.99,29.86,5,1,0,0.10
2013-9-29,83,76,72,73,71,69,98,86,67,29.92,29.79,4,1,0,0.00
2013-10-2,-200,0,200,-100,-100,-100,0,0,100,0.00,40.00,0,-999,0,0.00
2013-10-3,82,79,80,71,65,-100,70,67,67,29.88,29.75,0,-29,0,0.01
2013-10-4,83,80,78,72,70,67,74,71,68,29.90,29.77,0,0,0,0.00
2013-10-5,81,80,79,70,69,67,72,70,67,29.89,29.77,0,0,0,0.00
2013-10-6,80,79,78,70,69,68,73,71,69,29.88,29.77,0,0,0,0.00
2013-10-7,82,80,78,70,69,68,74,70,66,29.92,29.81,0,0,0,0.00
2013-10-17,81,80,79,71,70,69,72,71,71,29.87,28.40,0,0,0,0.00
2013-10-18,83,78,77,71,67,-100,76,71,67,28.40,28.24,0,-14,0,0.00
2013-12-4,85,69,67,69,60,-100,99,81,57,28.44,28.30,3,-42,0,0.00
2013-12-5,84,72,65,69,67,65,99,85,60,28.46,28.32,3,0,0,0.00
2013-12-6,84,72,66,69,67,65,99,87,58,28.46,28.31,3,0,0,0.02
2013-12-7,85,74,66,70,67,65,99,80,53,28.43,28.29,5,0,0,0.00
2013-12-8,74,71,68,72,70,68,99,97,94,28.47,28.39,0,0,0,0.00
2013-12-9,87,77,69,74,71,68,99,84,62,28.56,28.39,3,0,0,0.00
2013-12-10,84,76,71,73,68,66,99,77,61,28.50,28.35,4,1,0,0.02
2013-12-11,82,75,69,73,69,66,97,81,63,28.49,28.34,4,1,0,0.00
2013-12-12,85,73,68,72,69,65,99,88,60,28.50,28.35,3,0,0,0.02
2013-12-13,83,72,68,70,69,68,99,89,63,28.50,28.38,6,0,0,0.00
2013-12-14,82,72,67,70,68,66,97,85,63,28.45,28.30,2,0,0,0.00
2013-12-15,75,69,66,71,68,65,99,96,79,28.49,28.26,4,0,0,1.01
2013-12-16,82,72,65,71,67,64,99,85,66,28.45,28.31,7,1,0,0.00
2013-12-17,83,72,64,68,65,63,99,80,56,28.49,28.34,5,1,0,0.00
2013-12-18,82,72,66,70,67,64,99,86,64,28.48,28.35,5,1,0,0.10
2013-12-19,83,73,66,71,68,65,99,86,65,28.49,28.36,3,1,0,0.03
2013-12-20,83,72,67,71,68,66,99,88,65,28.48,28.35,4,0,0,0.05
2013-12-21,82,74,67,74,70,66,99,89,67,28.48,28.32,3,0,0,0.21
2013-12-22,79,69,66,70,67,65,99,93,70,28.44,28.32,3,0,0,0.00
2013-12-23,81,72,66,72,69,66,99,91,67,28.50,28.35,4,1,0,0.96
2013-12-24,82,71,66,72,68,66,99,92,68,28.50,28.38,4,0,0,0.05
2013-12-25,81,74,66,70,67,65,99,81,66,28.51,28.35,8,1,0,0.00
2013-12-26,83,74,66,69,66,62,94,77,60,28.45,28.31,5,1,0,0.00
2013-12-27,85,75,68,69,66,63,88,74,56,28.43,28.27,6,2,0,0.00
2013-12-28,85,76,71,70,68,66,89,76,62,28.39,28.24,5,2,0,0.00
2013-12-29,77,72,70,67,64,63,89,77,66,28.43,28.30,7,3,0,0.02
2013-12-31,66,66,66,65,65,65,95,95,94,28.42,28.39,0,0,0,0.00
2014-1-1,84,74,64,70,68,64,99,82,59,28.42,28.26,4,1,0,0.00
2014-1-2,80,75,68,74,71,68,99,87,74,28.32,28.17,7,2,0,3.34